createdAt,value
2017-09-21T00:00:04.725Z,99541.03
2017-09-21T00:02:32.192Z,99540.03
2017-09-21T00:04:59.680Z,99537.86
2017-09-21T00:07:27.153Z,99537.89
2017-09-21T00:09:54.648Z,99538.22
2017-09-21T00:12:22.101Z,99541.19
2017-09-21T00:14:49.589Z,99536.82
2017-09-21T00:17:17.038Z,99541.91
2017-09-21T00:19:44.489Z,99541.21
2017-09-21T00:22:11.977Z,99545.17
2017-09-21T00:24:39.430Z,99543.50
2017-09-21T00:27:06.909Z,99545.64
2017-09-21T00:29:34.368Z,99541.73
2017-09-21T00:32:01.849Z,99541.80
2017-09-21T00:34:29.293Z,99543.31
2017-09-21T00:36:56.777Z,99546.45
2017-09-21T00:39:24.239Z,99537.08
2017-09-21T00:41:51.709Z,99532.88
2017-09-21T00:44:19.172Z,99535.26
2017-09-21T00:46:46.696Z,99527.23
2017-09-21T00:49:14.179Z,99525.52
2017-09-21T00:51:41.653Z,99525.98
2017-09-21T00:54:09.127Z,99521.27
2017-09-21T00:56:36.580Z,99525.63
2017-09-21T00:59:04.089Z,99535.08
2017-09-21T01:01:31.582Z,99537.41
2017-09-21T01:03:59.061Z,99538.69
2017-09-21T01:06:26.516Z,99534.75
2017-09-21T01:08:54.020Z,99532.05
2017-09-21T01:11:21.462Z,99532.80
2017-09-21T01:13:48.941Z,99537.92
2017-09-21T01:16:16.394Z,99540.52
2017-09-21T01:18:43.878Z,99539.25
2017-09-21T01:21:11.357Z,99534.34
2017-09-21T01:23:38.825Z,99532.41
2017-09-21T01:26:06.354Z,99542.25
2017-09-21T01:28:33.805Z,99538.50
2017-09-21T01:31:01.336Z,99539.95
2017-09-21T01:33:28.815Z,99534.36
2017-09-21T01:35:56.305Z,99543.41
2017-09-21T01:38:23.768Z,99543.09
2017-09-21T01:40:51.216Z,99546.64
2017-09-21T01:43:18.679Z,99537.25
2017-09-21T01:45:46.133Z,99541.56
2017-09-21T01:48:13.613Z,99540.84
2017-09-21T01:50:41.065Z,99531.64
2017-09-21T01:53:08.537Z,99538.50
2017-09-21T01:55:36.017Z,99539.35
2017-09-21T01:58:03.530Z,99544.13
2017-09-21T02:00:31.022Z,99541.38
2017-09-21T02:02:58.464Z,99540.53
2017-09-21T02:05:25.945Z,99541.36
2017-09-21T02:07:53.405Z,99536.03
2017-09-21T02:10:20.883Z,99527.62
2017-09-21T02:12:48.344Z,99524.00
2017-09-21T02:15:15.828Z,99528.55
2017-09-21T02:17:43.297Z,99529.58
2017-09-21T02:20:10.780Z,99530.45
2017-09-21T02:22:38.231Z,99528.99
2017-09-21T02:25:05.706Z,99523.30
2017-09-21T02:27:33.201Z,99522.32
2017-09-21T02:30:00.637Z,99523.18
2017-09-21T02:32:28.117Z,99527.91
2017-09-21T02:34:55.572Z,99527.95
2017-09-21T02:37:23.062Z,99527.02
2017-09-21T02:39:50.519Z,99519.80
2017-09-21T02:42:18.014Z,99527.27
2017-09-21T02:44:45.475Z,99525.20
2017-09-21T02:47:13.083Z,99523.11
2017-09-21T02:49:40.517Z,99523.16
2017-09-21T02:52:09.058Z,99517.84
2017-09-21T02:54:36.533Z,99515.77
2017-09-21T02:57:03.989Z,99517.52
2017-09-21T02:59:31.469Z,99518.11
2017-09-21T03:01:58.906Z,99513.56
2017-09-21T03:04:26.384Z,99514.53
2017-09-21T03:06:53.820Z,99510.83
2017-09-21T03:09:21.290Z,99511.39
2017-09-21T03:11:48.754Z,99496.62
2017-09-21T03:14:16.375Z,99504.75
2017-09-21T03:16:43.836Z,99508.87
2017-09-21T03:19:11.313Z,99511.13
2017-09-21T03:21:38.782Z,99510.31
2017-09-21T03:24:06.221Z,99483.03
2017-09-21T03:26:33.684Z,99503.50
2017-09-21T03:29:01.152Z,99498.09
2017-09-21T03:31:28.621Z,99507.02
2017-09-21T03:33:56.062Z,99505.17
2017-09-21T03:36:23.503Z,99506.80
2017-09-21T03:38:50.981Z,99507.73
2017-09-21T03:41:18.449Z,99506.90
2017-09-21T03:43:45.920Z,99506.88
2017-09-21T03:46:13.606Z,99504.91
2017-09-21T03:48:41.080Z,99507.02
2017-09-21T03:51:08.571Z,99501.23
2017-09-21T03:53:36.057Z,99504.56
2017-09-21T03:56:03.506Z,99504.69
2017-09-21T03:58:30.972Z,99506.11
2017-09-21T04:00:58.420Z,99510.66
2017-09-21T04:03:25.896Z,99503.65
2017-09-21T04:05:53.344Z,99499.06
2017-09-21T04:08:20.817Z,99500.19
2017-09-21T04:10:48.268Z,99499.55
2017-09-21T04:13:15.749Z,99497.61
2017-09-21T04:15:43.220Z,99493.57
2017-09-21T04:18:10.665Z,99491.56
2017-09-21T04:20:38.159Z,99499.98
2017-09-21T04:23:05.604Z,99497.23
2017-09-21T04:25:33.099Z,99496.88
2017-09-21T04:28:00.551Z,99491.20
2017-09-21T04:30:28.017Z,99502.53
2017-09-21T04:32:55.491Z,99501.55
2017-09-21T04:35:22.956Z,99504.83
2017-09-21T04:37:50.420Z,99491.95
2017-09-21T04:40:17.867Z,99491.98
2017-09-21T04:42:45.426Z,99500.30
2017-09-21T04:45:12.894Z,99493.97
2017-09-21T04:47:40.365Z,99499.90
2017-09-21T04:50:07.833Z,99503.20
2017-09-21T04:52:35.301Z,99502.38
2017-09-21T04:55:02.785Z,99503.51
2017-09-21T04:57:30.254Z,99511.52
2017-09-21T04:59:57.744Z,99513.80
2017-09-21T05:02:25.213Z,99513.85
2017-09-21T05:04:52.688Z,99514.59
2017-09-21T05:07:20.145Z,99511.59
2017-09-21T05:09:47.602Z,99507.55
2017-09-21T05:12:15.084Z,99505.58
2017-09-21T05:14:42.529Z,99505.66
2017-09-21T05:17:10.004Z,99499.83
2017-09-21T05:19:37.480Z,99499.16
2017-09-21T05:22:05.069Z,99503.00
2017-09-21T05:24:32.528Z,99507.01
2017-09-21T05:26:59.978Z,99511.28
2017-09-21T05:29:27.454Z,99508.70
2017-09-21T05:31:54.902Z,99509.07
2017-09-21T05:34:22.394Z,99516.73
2017-09-21T05:36:49.861Z,99519.41
2017-09-21T05:39:17.362Z,99527.01
2017-09-21T05:41:44.818Z,99526.41
2017-09-21T05:44:12.453Z,99526.15
2017-09-21T05:46:40.623Z,99527.63
2017-09-21T05:49:08.115Z,99525.10
2017-09-21T05:51:35.576Z,99531.03
2017-09-21T05:54:03.037Z,99527.84
2017-09-21T05:56:30.524Z,99522.06
2017-09-21T05:58:57.985Z,99516.62
2017-09-21T06:01:25.465Z,99522.81
2017-09-21T06:03:52.920Z,99519.81
2017-09-21T06:06:20.410Z,99525.02
2017-09-21T06:08:47.878Z,99517.00
2017-09-21T06:11:15.351Z,99515.73
2017-09-21T06:13:42.838Z,99509.43
2017-09-21T06:16:10.379Z,99508.47
2017-09-21T06:18:37.829Z,99511.88
2017-09-21T06:21:05.365Z,99513.50
2017-09-21T06:23:32.817Z,99508.78
2017-09-21T06:26:00.328Z,99506.19
2017-09-21T06:28:27.817Z,99508.55
2017-09-21T06:30:55.261Z,99513.06
2017-09-21T06:33:22.844Z,99508.55
2017-09-21T06:35:50.300Z,99515.34
2017-09-21T06:38:17.982Z,99508.76
2017-09-21T06:40:45.480Z,99509.19
2017-09-21T06:43:12.960Z,99513.54
2017-09-21T06:45:40.452Z,99518.41
2017-09-21T06:48:07.929Z,99519.63
2017-09-21T06:50:35.410Z,99516.19
2017-09-21T06:53:02.896Z,99513.02
2017-09-21T06:55:30.377Z,99515.91
2017-09-21T06:57:57.831Z,99525.82
2017-09-21T07:00:25.309Z,99524.09
2017-09-21T07:02:52.768Z,99522.58
2017-09-21T07:05:20.252Z,99524.31
2017-09-21T07:07:47.720Z,99524.37
2017-09-21T07:10:15.211Z,99527.54
2017-09-21T07:12:42.709Z,99518.73
2017-09-21T07:15:10.162Z,99523.06
2017-09-21T07:17:37.645Z,99520.11
2017-09-21T07:20:05.141Z,99511.86
2017-09-21T07:22:32.624Z,99523.67
2017-09-21T07:25:00.113Z,99523.91
2017-09-21T07:27:27.599Z,99525.53
2017-09-21T07:29:55.070Z,99524.06
2017-09-21T07:32:22.549Z,99527.37
2017-09-21T07:34:50.024Z,99529.28
2017-09-21T07:37:17.545Z,99530.42
2017-09-21T07:39:45.070Z,99527.78
2017-09-21T07:42:12.552Z,99526.06
2017-09-21T07:44:40.018Z,99530.08
2017-09-21T07:47:07.524Z,99531.69
2017-09-21T07:49:35.066Z,99526.03
2017-09-21T07:52:02.565Z,99527.91
2017-09-21T07:54:30.061Z,99523.92
2017-09-21T07:56:57.518Z,99517.94
2017-09-21T07:59:24.995Z,99520.36
2017-09-21T08:01:52.470Z,99519.24
2017-09-21T08:04:19.976Z,99508.80
2017-09-21T08:06:47.444Z,99521.39
2017-09-21T08:09:14.983Z,99505.23
2017-09-21T08:11:42.433Z,99515.10
2017-09-21T08:14:10.073Z,99513.81
2017-09-21T08:16:37.562Z,99518.01
2017-09-21T08:19:05.017Z,99520.70
2017-09-21T08:21:32.507Z,99517.19
2017-09-21T08:24:00.010Z,99518.12
2017-09-21T08:26:27.529Z,99491.75
2017-09-21T08:28:55.075Z,99508.89
2017-09-21T08:31:22.565Z,99510.63
2017-09-21T08:33:50.112Z,99497.27
2017-09-21T08:36:17.613Z,99510.80
2017-09-21T08:38:45.125Z,99506.70
2017-09-21T08:41:12.624Z,99506.70
2017-09-21T08:43:40.143Z,99506.44
2017-09-21T08:46:07.653Z,99508.98
2017-09-21T08:48:35.270Z,99511.33
2017-09-21T08:51:02.754Z,99517.30
2017-09-21T08:53:30.265Z,99510.61
2017-09-21T08:55:57.726Z,99510.97
2017-09-21T08:58:25.244Z,99504.55
2017-09-21T09:00:52.733Z,99503.67
2017-09-21T09:03:20.227Z,99505.52
2017-09-21T09:05:47.685Z,99499.39
2017-09-21T09:08:15.674Z,99491.38
2017-09-21T09:10:43.193Z,99495.05
2017-09-21T09:13:10.653Z,99490.45
2017-09-21T09:15:38.144Z,99490.78
2017-09-21T09:18:05.613Z,99485.13
2017-09-21T09:20:33.126Z,99493.85
2017-09-21T09:23:01.009Z,99492.72
2017-09-21T09:25:28.471Z,99486.87
2017-09-21T09:27:55.933Z,99483.86
2017-09-21T09:30:23.421Z,99480.17
2017-09-21T09:32:50.904Z,99480.51
2017-09-21T09:35:18.389Z,99476.52
2017-09-21T09:37:45.865Z,99477.11
2017-09-21T09:40:13.349Z,99475.42
2017-09-21T09:42:40.885Z,99462.71
2017-09-21T09:45:08.361Z,99463.20
2017-09-21T09:47:35.845Z,99454.78
2017-09-21T09:50:03.368Z,99461.92
2017-09-21T09:52:30.936Z,99457.02
2017-09-21T09:54:59.232Z,99452.68
2017-09-21T09:57:26.703Z,99449.80
2017-09-21T09:59:54.190Z,99448.30
2017-09-21T10:02:21.657Z,99448.59
2017-09-21T10:04:49.512Z,99446.59
2017-09-21T10:07:16.968Z,99447.84
2017-09-21T10:09:44.485Z,99443.91
2017-09-21T10:12:12.048Z,99442.31
2017-09-21T10:14:39.563Z,99443.95
2017-09-21T10:17:07.068Z,99439.70
2017-09-21T10:19:34.530Z,99436.87
2017-09-21T10:22:02.023Z,99433.02
2017-09-21T10:24:29.476Z,99429.70
2017-09-21T10:26:56.956Z,99429.83
2017-09-21T10:29:24.437Z,99428.45
2017-09-21T10:31:51.882Z,99425.70
2017-09-21T10:34:19.434Z,99428.69
2017-09-21T10:36:46.918Z,99419.61
2017-09-21T10:39:14.416Z,99410.27
2017-09-21T10:41:42.065Z,99417.97
2017-09-21T10:44:09.541Z,99416.73
2017-09-21T10:46:37.037Z,99423.73
2017-09-21T10:49:04.514Z,99413.86
2017-09-21T10:51:32.048Z,99413.28
2017-09-21T10:53:59.544Z,99410.66
2017-09-21T10:56:27.033Z,99413.61
2017-09-21T10:58:54.574Z,99404.77
2017-09-21T11:01:22.227Z,99405.66
2017-09-21T11:03:49.697Z,99400.70
2017-09-21T11:06:17.153Z,99402.38
2017-09-21T11:08:44.638Z,99395.68
2017-09-21T11:11:12.076Z,99393.58
2017-09-21T11:13:39.553Z,99401.42
2017-09-21T11:16:07.001Z,99391.88
2017-09-21T11:18:34.481Z,99387.89
2017-09-21T11:21:02.010Z,99385.08
2017-09-21T11:23:29.534Z,99388.31
2017-09-21T11:25:57.449Z,99384.80
2017-09-21T11:28:24.892Z,99381.60
2017-09-21T11:30:52.375Z,99381.00
2017-09-21T11:33:19.926Z,99386.25
2017-09-21T11:35:48.001Z,99380.86
2017-09-21T11:38:15.441Z,99385.14
2017-09-21T11:40:42.997Z,99383.77
2017-09-21T11:43:10.477Z,99379.77
2017-09-21T11:45:38.008Z,99374.92
2017-09-21T11:48:05.461Z,99372.34
2017-09-21T11:50:32.938Z,99365.91
2017-09-21T11:53:00.394Z,99363.93
2017-09-21T11:55:27.873Z,99361.65
2017-09-21T11:57:55.373Z,99361.03
2017-09-21T12:00:22.878Z,99361.19
2017-09-21T12:02:50.330Z,99349.98
2017-09-21T12:05:17.832Z,99338.39
2017-09-21T12:07:45.327Z,99344.55
2017-09-21T12:10:12.775Z,99348.30
2017-09-21T12:12:40.253Z,99354.40
2017-09-21T12:15:07.719Z,99348.77
2017-09-21T12:17:35.582Z,99346.77
2017-09-21T12:20:04.000Z,99325.34
2017-09-21T12:22:31.496Z,99341.88
2017-09-21T12:24:58.941Z,99346.66
2017-09-21T12:27:26.392Z,99342.16
2017-09-21T12:29:53.901Z,99338.66
2017-09-21T12:32:21.360Z,99343.95
2017-09-21T12:34:48.824Z,99333.52
2017-09-21T12:37:16.287Z,99329.96
2017-09-21T12:39:43.773Z,99338.55
2017-09-21T12:42:11.295Z,99338.87
2017-09-21T12:44:38.953Z,99339.59
2017-09-21T12:47:06.372Z,99334.62
2017-09-21T12:49:34.676Z,99326.66
2017-09-21T12:52:02.162Z,99328.55
2017-09-21T12:54:29.628Z,99316.33
2017-09-21T12:56:57.140Z,99325.45
2017-09-21T12:59:25.983Z,99319.27
2017-09-21T13:01:53.470Z,99316.53
2017-09-21T13:04:21.197Z,99317.08
2017-09-21T13:06:48.698Z,99310.22
2017-09-21T13:09:16.146Z,99308.68
2017-09-21T13:11:43.642Z,99305.55
2017-09-21T13:14:11.149Z,99301.67
2017-09-21T13:16:38.595Z,99303.33
2017-09-21T13:19:06.070Z,99299.11
2017-09-21T13:21:33.549Z,99297.00
2017-09-21T13:24:01.033Z,99298.70
2017-09-21T13:26:28.490Z,99293.88
2017-09-21T13:28:55.994Z,99299.52
2017-09-21T13:31:23.464Z,99298.23
2017-09-21T13:33:50.947Z,99292.94
2017-09-21T13:36:18.413Z,99290.12
2017-09-21T13:38:45.890Z,99286.70
2017-09-21T13:41:13.374Z,99286.95
2017-09-21T13:43:40.967Z,99288.71
2017-09-21T13:46:08.490Z,99281.82
2017-09-21T13:48:35.952Z,99287.17
2017-09-21T13:51:03.437Z,99292.21
2017-09-21T13:53:30.939Z,99285.58
2017-09-21T13:55:58.439Z,99282.58
2017-09-21T13:58:25.924Z,99280.41
2017-09-21T14:00:53.401Z,99278.09
2017-09-21T14:03:20.944Z,99277.53
2017-09-21T14:05:48.605Z,99275.75
2017-09-21T14:08:16.098Z,99277.27
2017-09-21T14:10:43.675Z,99275.63
2017-09-21T14:13:11.183Z,99275.44
2017-09-21T14:15:38.867Z,99278.66
2017-09-21T14:18:06.372Z,99270.42
2017-09-21T14:20:34.132Z,99271.58
2017-09-21T14:23:01.655Z,99271.59
2017-09-21T14:25:29.129Z,99269.80
2017-09-21T14:27:56.621Z,99275.63
2017-09-21T14:30:24.110Z,99272.27
2017-09-21T14:32:51.613Z,99275.79
2017-09-21T14:35:19.089Z,99269.72
2017-09-21T14:37:46.552Z,99266.85
2017-09-21T14:40:14.093Z,99269.47
2017-09-21T14:42:41.568Z,99265.39
2017-09-21T14:45:09.086Z,99264.49
2017-09-21T14:47:36.633Z,99262.31
2017-09-21T14:50:04.169Z,99250.62
2017-09-21T14:52:31.662Z,99251.04
2017-09-21T14:54:59.174Z,99253.48
2017-09-21T14:57:26.674Z,99248.86
2017-09-21T14:59:54.183Z,99252.59
2017-09-21T15:02:21.655Z,99251.72
2017-09-21T15:04:49.233Z,99253.41
2017-09-21T15:07:16.732Z,99247.14
2017-09-21T15:09:44.214Z,99246.31
2017-09-21T15:12:11.711Z,99243.91
2017-09-21T15:14:39.173Z,99242.29
2017-09-21T15:17:06.705Z,99239.69
2017-09-21T15:19:34.211Z,99248.16
2017-09-21T15:22:01.741Z,99243.73
2017-09-21T15:24:29.210Z,99237.97
2017-09-21T15:26:57.012Z,99241.02
2017-09-21T15:29:24.497Z,99248.58
2017-09-21T15:31:51.985Z,99244.88
2017-09-21T15:34:19.458Z,99228.88
2017-09-21T15:36:46.917Z,99249.97
2017-09-21T15:39:14.412Z,99248.88
2017-09-21T15:41:41.964Z,99252.73
2017-09-21T15:44:09.444Z,99254.73
2017-09-21T15:46:36.929Z,99254.87
2017-09-21T15:49:04.408Z,99254.98
2017-09-21T15:51:31.917Z,99257.23
2017-09-21T15:53:59.405Z,99251.71
2017-09-21T15:56:26.958Z,99257.25
2017-09-21T15:58:54.445Z,99262.28
2017-09-21T16:01:21.962Z,99259.25
2017-09-21T16:03:49.464Z,99262.03
2017-09-21T16:06:16.973Z,99261.58
2017-09-21T16:08:44.502Z,99263.97
2017-09-21T16:11:12.001Z,99259.88
2017-09-21T16:13:39.454Z,99261.26
2017-09-21T16:16:06.952Z,99259.00
2017-09-21T16:18:34.993Z,99264.50
2017-09-21T16:21:02.487Z,99253.83
2017-09-21T16:23:29.960Z,99261.53
2017-09-21T16:25:57.457Z,99261.96
2017-09-21T16:28:24.927Z,99256.27
2017-09-21T16:30:52.414Z,99253.17
2017-09-21T16:33:19.885Z,99259.05
2017-09-21T16:35:47.504Z,99256.47
2017-09-21T16:38:14.974Z,99250.94
2017-09-21T16:40:42.433Z,99253.99
2017-09-21T16:43:09.917Z,99256.69
2017-09-21T16:45:37.369Z,99236.81
2017-09-21T16:48:04.893Z,99256.02
2017-09-21T16:50:32.365Z,99252.45
2017-09-21T16:52:59.883Z,99251.73
2017-09-21T16:55:27.398Z,99257.75
2017-09-21T16:57:54.950Z,99256.63
2017-09-21T17:00:22.584Z,99254.27
2017-09-21T17:02:50.164Z,99251.59
2017-09-21T17:05:17.799Z,99254.48
2017-09-21T17:07:45.274Z,99248.09
2017-09-21T17:10:12.753Z,99257.47
2017-09-21T17:12:40.282Z,99255.32
2017-09-21T17:15:07.769Z,99264.62
2017-09-21T17:17:35.266Z,99265.17
2017-09-21T17:20:02.806Z,99264.94
2017-09-21T17:22:30.287Z,99267.11
2017-09-21T17:24:57.824Z,99263.70
2017-09-21T17:27:25.274Z,99265.53
2017-09-21T17:29:52.769Z,99269.86
2017-09-21T17:32:20.283Z,99274.05
2017-09-21T17:34:48.369Z,99272.67
2017-09-21T17:37:15.832Z,99271.48
2017-09-21T17:39:43.304Z,99276.20
2017-09-21T17:42:10.763Z,99275.20
2017-09-21T17:44:38.254Z,99271.22
2017-09-21T17:47:05.701Z,99277.06
2017-09-21T17:49:33.152Z,99280.41
2017-09-21T17:52:00.633Z,99285.51
2017-09-21T17:54:28.089Z,99280.07
2017-09-21T17:56:55.577Z,99282.44
2017-09-21T17:59:23.061Z,99289.68
2017-09-21T18:01:50.547Z,99292.12
2017-09-21T18:04:18.114Z,99293.36
2017-09-21T18:06:45.597Z,99281.78
2017-09-21T18:09:13.065Z,99290.48
2017-09-21T18:11:40.537Z,99291.86
2017-09-21T18:14:08.018Z,99296.84
2017-09-21T18:16:35.477Z,99300.20
2017-09-21T18:19:02.949Z,99303.23
2017-09-21T18:21:30.401Z,99305.16
2017-09-21T18:23:57.922Z,99307.31
2017-09-21T18:26:25.389Z,99312.20
2017-09-21T18:28:52.921Z,99316.02
2017-09-21T18:31:20.387Z,99314.37
2017-09-21T18:33:47.917Z,99313.39
2017-09-21T18:36:15.395Z,99311.66
2017-09-21T18:38:42.843Z,99313.16
2017-09-21T18:41:10.321Z,99316.19
2017-09-21T18:43:37.853Z,99315.26
2017-09-21T18:46:05.363Z,99322.78
2017-09-21T18:48:32.854Z,99317.35
2017-09-21T18:51:00.344Z,99302.39
2017-09-21T18:53:27.830Z,99310.39
2017-09-21T18:55:55.321Z,99321.77
2017-09-21T18:58:22.792Z,99316.55
2017-09-21T19:00:50.257Z,99322.52
2017-09-21T19:03:17.798Z,99330.06
2017-09-21T19:05:45.270Z,99321.45
2017-09-21T19:08:12.772Z,99327.34
2017-09-21T19:10:40.231Z,99321.32
2017-09-21T19:13:07.727Z,99316.59
2017-09-21T19:15:35.191Z,99317.25
2017-09-21T19:18:02.709Z,99317.52
2017-09-21T19:20:30.179Z,99316.66
2017-09-21T19:22:57.687Z,99314.83
2017-09-21T19:25:25.195Z,99320.35
2017-09-21T19:27:52.662Z,99319.09
2017-09-21T19:30:20.188Z,99321.48
2017-09-21T19:32:49.280Z,99326.33
2017-09-21T19:35:16.790Z,99317.17
2017-09-21T19:37:44.250Z,99314.00
2017-09-21T19:40:11.750Z,99313.52
2017-09-21T19:42:39.230Z,99320.50
2017-09-21T19:45:06.767Z,99323.55
2017-09-21T19:47:34.241Z,99319.41
2017-09-21T19:50:01.750Z,99321.72
2017-09-21T19:52:29.282Z,99321.88
2017-09-21T19:54:56.772Z,99316.47
2017-09-21T19:57:24.269Z,99312.86
2017-09-21T19:59:51.730Z,99319.32
2017-09-21T20:02:19.228Z,99322.91
2017-09-21T20:04:47.290Z,99319.83
2017-09-21T20:07:14.797Z,99322.10
2017-09-21T20:09:42.272Z,99322.27
2017-09-21T20:12:09.776Z,99322.05
2017-09-21T20:14:37.283Z,99324.85
2017-09-21T20:17:04.809Z,99323.14
2017-09-21T20:19:32.270Z,99324.55
2017-09-21T20:21:59.769Z,99323.52
2017-09-21T20:24:27.277Z,99325.38
2017-09-21T20:26:54.728Z,99328.64
2017-09-21T20:29:22.221Z,99326.30
2017-09-21T20:31:49.703Z,99330.42
2017-09-21T20:34:17.209Z,99327.59
2017-09-21T20:36:44.666Z,99319.95
2017-09-21T20:39:12.144Z,99323.18
2017-09-21T20:41:39.669Z,99326.17
2017-09-21T20:44:07.125Z,99323.92
2017-09-21T20:46:34.641Z,99320.64
2017-09-21T20:49:02.097Z,99314.91
2017-09-21T20:51:29.577Z,99315.95
2017-09-21T20:53:57.045Z,99322.31
2017-09-21T20:56:24.556Z,99320.34
2017-09-21T20:58:52.059Z,99305.30
2017-09-21T21:01:19.534Z,99313.83
2017-09-21T21:03:47.088Z,99317.92
2017-09-21T21:06:14.554Z,99306.89
2017-09-21T21:08:42.133Z,99308.18
2017-09-21T21:11:09.585Z,99310.72
2017-09-21T21:13:37.057Z,99307.42
2017-09-21T21:16:04.636Z,99312.04
2017-09-21T21:18:32.149Z,99311.48
2017-09-21T21:20:59.634Z,99313.31
2017-09-21T21:23:27.076Z,99293.33
2017-09-21T21:25:54.566Z,99311.47
2017-09-21T21:28:22.038Z,99307.09
2017-09-21T21:30:49.538Z,99316.24
2017-09-21T21:33:17.015Z,99319.85
2017-09-21T21:35:44.497Z,99303.17
2017-09-21T21:38:11.996Z,99325.73
2017-09-21T21:40:39.494Z,99315.64
2017-09-21T21:43:06.965Z,99320.14
2017-09-21T21:45:34.436Z,99318.17
2017-09-21T21:48:01.941Z,99322.16
2017-09-21T21:50:29.441Z,99316.73
2017-09-21T21:52:56.962Z,99322.19
2017-09-21T21:55:24.463Z,99321.27
2017-09-21T21:57:51.947Z,99321.14
2017-09-21T22:00:19.441Z,99329.63
2017-09-21T22:02:46.895Z,99326.17
2017-09-21T22:05:14.380Z,99335.05
2017-09-21T22:07:41.849Z,99328.30
2017-09-21T22:10:09.320Z,99327.40
2017-09-21T22:12:36.766Z,99327.12
2017-09-21T22:15:04.277Z,99325.66
2017-09-21T22:17:31.767Z,99321.69
2017-09-21T22:19:59.269Z,99327.28
2017-09-21T22:22:26.717Z,99328.22
2017-09-21T22:24:54.171Z,99327.13
2017-09-21T22:27:21.673Z,99323.17
2017-09-21T22:29:49.129Z,99318.52
2017-09-21T22:32:16.622Z,99321.59
2017-09-21T22:34:44.071Z,99320.51
2017-09-21T22:37:11.738Z,99322.11
2017-09-21T22:39:39.205Z,99317.88
2017-09-21T22:42:07.482Z,99321.17
2017-09-21T22:44:35.013Z,99322.75
2017-09-21T22:47:02.476Z,99321.56
2017-09-21T22:49:30.012Z,99319.58
2017-09-21T22:51:57.502Z,99322.36
2017-09-21T22:54:25.037Z,99312.44
2017-09-21T22:56:52.550Z,99318.94
2017-09-21T22:59:20.031Z,99315.08
2017-09-21T23:01:47.493Z,99315.32
2017-09-21T23:04:15.011Z,99295.14
2017-09-21T23:06:42.475Z,99314.37
2017-09-21T23:09:09.962Z,99316.11
2017-09-21T23:11:37.410Z,99311.48
2017-09-21T23:14:04.885Z,99314.78
2017-09-21T23:16:32.338Z,99314.73
2017-09-21T23:19:00.084Z,99322.16
2017-09-21T23:21:27.541Z,99321.89
2017-09-21T23:23:55.007Z,99316.18
2017-09-21T23:26:22.502Z,99322.79
2017-09-21T23:28:49.949Z,99319.36
2017-09-21T23:31:18.057Z,99320.55
2017-09-21T23:33:45.497Z,99320.58
2017-09-21T23:36:12.970Z,99328.91
2017-09-21T23:38:40.441Z,99323.06
2017-09-21T23:41:07.945Z,99326.77
2017-09-21T23:43:35.433Z,99329.70
2017-09-21T23:46:02.905Z,99325.47
2017-09-21T23:48:30.407Z,99331.97
2017-09-21T23:50:57.868Z,99333.56
2017-09-21T23:53:25.372Z,99335.38
2017-09-21T23:55:52.832Z,99336.82
2017-09-21T23:58:20.352Z,99332.44
